Time;durP1;ratioP1;P1;durP2;ratioP2;P2;SDS_P1;SDS_P2;PMS_P1;PMS_P2;Temp;Humidity;BMP_temperature;BMP_pressure;BME280_temperature;BME280_humidity;BME280_pressure;Samples;Min_cycle;Max_cycle;Signal;HPM_P1;HPM_P2
2022/12/24 00:00:14;;;;;;;;;12.67;2.67;;;;;13.77;100.00;100989.69;5076696;28;55877;-72
2022/12/24 00:02:39;;;;;;;;;9.67;3.00;;;;;13.79;100.00;101006.47;5077089;28;45310;-73
2022/12/24 00:05:05;;;;;;;;;4.33;1.33;;;;;13.78;100.00;100999.41;5076307;28;58716;-72
2022/12/24 00:07:30;;;;;;;;;2.00;2.00;;;;;13.77;100.00;100997.66;5076655;28;45492;-72
2022/12/24 00:09:56;;;;;;;;;5.67;3.00;;;;;13.67;100.00;100982.59;5075717;28;49625;-74
2022/12/24 00:12:21;;;;;;;;;6.00;3.00;;;;;13.72;100.00;100992.31;5075528;28;50823;-73
2022/12/24 00:14:47;;;;;;;;;3.67;2.67;;;;;13.71;100.00;100990.56;5076237;28;46562;-72
2022/12/24 00:17:12;;;;;;;;;9.67;2.00;;;;;13.71;100.00;100992.34;5075665;28;45319;-74
2022/12/24 00:19:37;;;;;;;;;5.33;2.67;;;;;13.69;100.00;100983.47;5075130;28;54982;-72
2022/12/24 00:22:03;;;;;;;;;5.00;3.33;;;;;13.65;100.00;100981.72;5074967;28;49714;-72
2022/12/24 00:24:28;;;;;;;;;7.00;1.67;;;;;13.66;100.00;100988.78;5075199;28;62685;-73
2022/12/24 00:26:53;;;;;;;;;8.33;3.00;;;;;13.66;100.00;100988.78;5077216;28;45635;-73
2022/12/24 00:29:19;;;;;;;;;7.33;2.00;;;;;13.65;100.00;100985.25;5076925;28;45383;-73
2022/12/24 00:31:45;;;;;;;;;3.67;0.67;;;;;13.66;100.00;100989.69;5076591;28;45516;-72
2022/12/24 00:34:11;;;;;;;;;5.33;1.00;;;;;13.60;100.00;100982.59;5076979;28;61134;-72
2022/12/24 00:36:36;;;;;;;;;3.00;2.00;;;;;13.63;100.00;100987.91;5076010;28;58878;-73
2022/12/24 00:39:01;;;;;;;;;4.67;2.67;;;;;13.57;100.00;100981.69;5076492;28;56393;-73
2022/12/24 00:41:30;;;;;;;;;3.67;2.00;;;;;13.58;100.00;100999.38;5076626;28;45440;-74
2022/12/24 00:44:00;;;;;;;;;4.67;2.33;;;;;13.56;100.00;101007.34;5076418;28;45909;-73
2022/12/24 00:46:27;;;;;;;;;6.33;3.67;;;;;13.57;100.00;101013.53;5076298;28;45367;-72
2022/12/24 00:48:54;;;;;;;;;3.00;1.67;;;;;13.55;100.00;101010.88;5075573;28;45288;-74
2022/12/24 00:51:19;;;;;;;;;11.00;2.00;;;;;13.57;100.00;101017.06;5076528;28;45379;-72
2022/12/24 00:53:45;;;;;;;;;7.33;2.00;;;;;13.54;100.00;101003.81;5075767;28;46660;-74
2022/12/24 00:56:11;;;;;;;;;8.67;1.33;;;;;13.55;100.00;101002.94;5075398;28;54871;-72
2022/12/24 00:58:36;;;;;;;;;4.67;2.00;;;;;13.53;100.00;101017.97;5075760;28;57607;-72
2022/12/24 01:01:02;;;;;;;;;7.00;3.00;;;;;13.54;100.00;101042.72;5077180;28;45506;-72
2022/12/24 01:03:36;;;;;;;;;6.67;3.00;;;;;13.53;100.00;101043.59;5076483;28;45913;-72
2022/12/24 01:06:02;;;;;;;;;6.00;2.00;;;;;13.55;100.00;101034.75;5075973;28;45448;-71
2022/12/24 01:08:27;;;;;;;;;5.33;2.00;;;;;13.52;100.00;101033.88;5076340;28;45276;-74
2022/12/24 01:10:52;;;;;;;;;12.00;2.00;;;;;13.51;100.00;101030.31;5074830;28;48834;-72
2022/12/24 01:13:18;;;;;;;;;2.67;2.00;;;;;13.57;100.00;101024.16;5069241;28;45666;-73
2022/12/24 01:15:43;;;;;;;;;5.00;2.00;;;;;13.58;100.00;101026.81;5074356;28;53499;-75
2022/12/24 01:18:08;;;;;;;;;6.33;3.00;;;;;13.59;100.00;101027.72;5074039;28;56026;-72
2022/12/24 01:20:34;;;;;;;;;5.00;3.00;;;;;13.55;100.00;101015.31;5075290;28;51477;-74
2022/12/24 01:22:59;;;;;;;;;8.00;2.00;;;;;13.60;100.00;101002.94;5074609;28;61997;-73
2022/12/24 01:25:24;;;;;;;;;4.00;2.00;;;;;13.56;100.00;101003.81;5074667;28;46522;-72
2022/12/24 01:27:50;;;;;;;;;6.00;2.00;;;;;13.56;100.00;101007.34;5074176;28;55263;-74
2022/12/24 01:30:15;;;;;;;;;3.33;2.67;;;;;13.61;100.00;101024.16;5075253;28;45354;-72
2022/12/24 01:32:41;;;;;;;;;1.67;1.67;;;;;13.57;100.00;101033.00;5075443;28;46295;-72
2022/12/24 01:35:06;;;;;;;;;10.00;2.67;;;;;13.63;100.00;101030.38;5074374;28;59775;-72
2022/12/24 01:37:32;;;;;;;;;3.00;1.33;;;;;13.60;100.00;101022.41;5075051;28;45687;-72
2022/12/24 01:45:50;;;;;;;;;8.00;2.00;;;;;13.66;100.00;101031.25;5074208;28;45450;-73
2022/12/24 01:48:15;;;;;;;;;3.33;3.33;;;;;13.65;100.00;101043.63;5073635;28;45295;-72
2022/12/24 01:50:41;;;;;;;;;3.67;2.00;;;;;13.60;100.00;101033.00;5077851;28;45465;-72
2022/12/24 01:53:07;;;;;;;;;9.33;3.00;;;;;13.61;100.00;101031.22;5076019;28;45512;-73
2022/12/24 01:55:33;;;;;;;;;8.33;3.00;;;;;13.59;100.00;101039.19;5078189;28;57548;-74
2022/12/24 01:57:58;;;;;;;;;5.67;2.67;;;;;13.65;100.00;101058.66;5078728;28;56116;-73
2022/12/24 02:00:24;;;;;;;;;5.67;4.67;;;;;13.64;100.00;101063.09;5077135;28;45398;-72
2022/12/24 02:02:51;;;;;;;;;7.00;2.33;;;;;13.57;100.00;101054.22;5078040;28;62184;-72
2022/12/24 02:05:38;;;;;;;;;12.00;2.33;;;;;13.65;100.00;101066.63;5078268;28;45298;-72
2022/12/24 02:08:04;;;;;;;;;3.00;1.67;;;;;13.58;100.00;101066.63;5075960;28;45403;-72
2022/12/24 02:10:29;;;;;;;;;8.33;3.67;;;;;13.59;100.00;101086.97;5077967;28;45375;-73
2022/12/24 02:12:56;;;;;;;;;8.33;1.67;;;;;13.61;100.00;101073.69;5074668;28;63294;-72
2022/12/24 02:15:21;;;;;;;;;4.00;1.00;;;;;13.60;100.00;101066.63;5076978;28;45505;-74
2022/12/24 02:18:03;;;;;;;;;5.33;3.00;;;;;13.61;100.00;101058.66;5077484;28;45474;-73
2022/12/24 02:20:50;;;;;;;;;5.67;2.00;;;;;13.61;100.00;101052.47;5077184;28;45530;-72
2022/12/24 02:23:49;;;;;;;;;4.00;3.00;;;;;13.64;100.00;101055.13;5060171;28;46581;-75
2022/12/24 02:26:30;;;;;;;;;4.00;1.00;;;;;13.63;100.00;101058.66;5048666;28;45417;-72
2022/12/24 02:29:23;;;;;;;;;6.67;3.33;;;;;13.64;100.00;101052.47;5078986;28;45178;-73
2022/12/24 02:32:00;;;;;;;;;7.00;3.00;;;;;13.58;100.00;101057.75;5077932;28;45880;-73
2022/12/24 02:34:25;;;;;;;;;10.67;3.00;;;;;13.61;100.00;101068.38;5076916;28;45349;-73
2022/12/24 02:36:57;;;;;;;;;6.00;2.00;;;;;13.57;100.00;101059.53;5077854;28;45349;-72
2022/12/24 02:39:46;;;;;;;;;6.33;3.00;;;;;13.60;100.00;101056.88;5077945;28;45371;-72
2022/12/24 02:42:16;;;;;;;;;4.00;2.00;;;;;13.55;100.00;101037.41;5081255;27;45374;-73
2022/12/24 02:44:54;;;;;;;;;7.00;4.00;;;;;13.57;100.00;101043.59;5073971;28;45529;-75
2022/12/24 02:47:22;;;;;;;;;5.33;2.00;;;;;13.59;100.00;101046.28;5072032;28;45288;-72
2022/12/24 02:49:47;;;;;;;;;8.67;3.33;;;;;13.55;100.00;101060.41;5075435;28;45463;-73
2022/12/24 02:52:38;;;;;;;;;10.33;3.33;;;;;13.57;100.00;101072.78;5077295;28;45426;-75
2022/12/24 02:55:07;;;;;;;;;8.00;3.33;;;;;13.55;100.00;101061.28;5055766;28;46448;-74
2022/12/24 02:58:09;;;;;;;;;11.67;3.00;;;;;13.57;100.00;101048.03;5076779;28;45196;-73
2022/12/24 03:00:52;;;;;;;;;8.33;2.00;;;;;13.60;100.00;101048.94;5056061;28;45542;-74
2022/12/24 03:03:33;;;;;;;;;4.67;2.00;;;;;13.61;100.00;101040.06;5073223;28;45352;-73
2022/12/24 03:06:20;;;;;;;;;10.33;3.00;;;;;13.65;100.00;101040.97;5069969;28;46078;-73
2022/12/24 03:08:54;;;;;;;;;4.33;1.00;;;;;13.66;100.00;101050.72;5077147;28;46308;-75
2022/12/24 03:11:20;;;;;;;;;6.00;0.00;;;;;13.67;100.00;101051.59;5072321;28;46980;-72
2022/12/24 03:13:46;;;;;;;;;5.67;2.00;;;;;13.63;100.00;101048.94;5075376;28;55527;-72
2022/12/24 03:16:14;;;;;;;;;8.00;4.00;;;;;13.67;100.00;101047.16;5075847;27;58373;-72
2022/12/24 03:18:43;;;;;;;;;6.33;2.00;;;;;13.68;100.00;101045.38;5058106;28;45390;-74
2022/12/24 03:21:13;;;;;;;;;4.33;3.00;;;;;13.66;100.00;101033.91;5073763;28;45343;-73
2022/12/24 03:23:38;;;;;;;;;3.67;3.67;;;;;13.64;100.00;101041.88;5076542;28;45468;-72
2022/12/24 03:26:07;;;;;;;;;8.00;3.00;;;;;13.62;100.00;101025.91;5076878;28;45664;-73
2022/12/24 03:28:32;;;;;;;;;10.67;3.67;;;;;13.68;100.00;101040.09;5058680;28;45403;-73
2022/12/24 03:31:00;;;;;;;;;9.67;2.67;;;;;13.68;100.00;101048.03;5058400;28;45395;-74
2022/12/24 03:33:26;;;;;;;;;6.67;3.00;;;;;13.66;100.00;101033.91;5059209;28;45459;-72
2022/12/24 03:35:51;;;;;;;;;8.67;3.33;;;;;13.69;100.00;101033.88;5076332;28;59578;-73
2022/12/24 03:38:16;;;;;;;;;13.00;3.00;;;;;13.66;100.00;101045.41;5076482;28;60206;-73
2022/12/24 03:40:42;;;;;;;;;10.00;3.00;;;;;13.65;100.00;101048.06;5076933;28;58110;-73
2022/12/24 03:43:07;;;;;;;;;9.00;3.67;;;;;13.66;100.00;101048.06;5076532;28;45442;-73
2022/12/24 03:45:32;;;;;;;;;3.67;2.67;;;;;13.63;100.00;101050.69;5075514;28;61651;-74
2022/12/24 03:47:58;;;;;;;;;4.67;3.00;;;;;13.68;100.00;101058.66;5075074;28;45215;-72
2022/12/24 03:50:23;;;;;;;;;5.67;1.33;;;;;13.66;100.00;101044.50;5059342;28;45354;-71
2022/12/24 03:52:48;;;;;;;;;8.00;3.00;;;;;13.63;100.00;101045.38;5076256;28;54773;-72
2022/12/24 03:55:14;;;;;;;;;3.00;3.00;;;;;13.66;100.00;101052.47;5076801;28;53636;-72
2022/12/24 03:57:39;;;;;;;;;5.33;3.00;;;;;13.64;100.00;101057.78;5076365;28;45395;-71
2022/12/24 04:00:05;;;;;;;;;9.67;3.00;;;;;13.66;100.00;101057.78;5076288;28;57229;-73
2022/12/24 04:02:31;;;;;;;;;1.00;1.00;;;;;13.59;100.00;101049.81;5077401;27;45387;-74
2022/12/24 04:04:56;;;;;;;;;4.67;2.67;;;;;13.66;100.00;101061.31;5075302;28;46467;-72
2022/12/24 04:07:21;;;;;;;;;4.33;0.67;;;;;13.52;100.00;101052.44;5076029;28;45520;-72
2022/12/24 04:09:47;;;;;;;;;8.00;5.00;;;;;13.59;100.00;101076.34;5077267;28;45776;-72
2022/12/24 04:12:12;;;;;;;;;4.00;4.00;;;;;13.62;100.00;101086.94;5075156;28;54999;-74
2022/12/24 04:14:37;;;;;;;;;4.00;2.00;;;;;13.61;100.00;101084.31;5070545;28;60292;-75
2022/12/24 04:17:03;;;;;;;;;6.33;1.67;;;;;13.61;100.00;101087.84;5075904;28;45411;-72
2022/12/24 04:19:28;;;;;;;;;4.00;2.00;;;;;13.60;100.00;101091.38;5075623;28;56884;-72
2022/12/24 04:21:53;;;;;;;;;5.33;4.00;;;;;13.62;100.00;101083.41;5076200;28;48669;-75
2022/12/24 04:24:19;;;;;;;;;4.67;3.00;;;;;13.65;100.00;101086.09;5075730;28;59745;-74
2022/12/24 04:26:44;;;;;;;;;4.67;2.00;;;;;13.61;100.00;101094.91;5075097;28;56043;-74
2022/12/24 04:29:10;;;;;;;;;5.67;3.00;;;;;13.65;100.00;101101.13;5076320;28;45491;-72
2022/12/24 04:31:35;;;;;;;;;7.00;4.00;;;;;13.66;100.00;101101.13;5075814;28;54391;-74
2022/12/24 04:34:00;;;;;;;;;8.67;3.00;;;;;13.61;100.00;101087.84;5076053;28;46420;-73
2022/12/24 04:36:26;;;;;;;;;4.00;2.00;;;;;13.63;100.00;101102.00;5075086;28;55780;-72
2022/12/24 04:38:51;;;;;;;;;3.00;1.33;;;;;13.62;100.00;101092.25;5075693;28;55734;-72
2022/12/24 04:41:18;;;;;;;;;6.67;2.00;;;;;13.65;100.00;101099.34;5075916;28;45379;-73
2022/12/24 04:43:44;;;;;;;;;4.67;3.33;;;;;13.55;100.00;101084.28;5074731;28;45454;-72
2022/12/24 04:46:16;;;;;;;;;5.00;3.00;;;;;13.65;100.00;101117.06;5074800;28;45501;-74
2022/12/24 04:48:42;;;;;;;;;3.33;1.67;;;;;13.65;100.00;101117.06;5075644;28;45381;-73
2022/12/24 04:51:07;;;;;;;;;5.00;2.00;;;;;13.63;100.00;101109.06;5076039;28;45472;-72
2022/12/24 04:53:34;;;;;;;;;4.00;2.00;;;;;13.63;100.00;101109.06;5073850;28;47686;-73
2022/12/24 04:55:59;;;;;;;;;8.00;2.00;;;;;13.60;100.00;101111.72;5075873;28;45450;-73
2022/12/24 04:58:25;;;;;;;;;6.33;3.00;;;;;13.65;100.00;101107.31;5075820;28;56487;-72
2022/12/24 05:00:50;;;;;;;;;4.00;2.67;;;;;13.66;100.00;101108.19;5076288;28;45617;-74
2022/12/24 05:03:16;;;;;;;;;8.00;2.00;;;;;13.63;100.00;101106.41;5075406;28;59448;-72
2022/12/24 05:05:41;;;;;;;;;8.00;2.00;;;;;13.62;100.00;101100.22;5074483;28;61756;-71
2022/12/24 05:08:06;;;;;;;;;7.67;3.00;;;;;13.66;100.00;101111.72;5075691;28;51677;-73
2022/12/24 05:10:32;;;;;;;;;8.00;3.00;;;;;13.62;100.00;101113.47;5075769;28;45240;-75
2022/12/24 05:12:57;;;;;;;;;8.67;2.00;;;;;13.64;100.00;101116.16;5072365;28;46542;-72
2022/12/24 05:15:23;;;;;;;;;7.33;4.00;;;;;13.68;100.00;101122.34;5054581;28;45277;-72
2022/12/24 05:17:48;;;;;;;;;10.67;3.67;;;;;13.68;100.00;101114.38;5075359;28;45221;-72
2022/12/24 05:20:14;;;;;;;;;8.33;2.00;;;;;13.67;100.00;101113.50;5075368;28;45375;-72
2022/12/24 05:28:06;;;;;;;;;6.33;2.00;;;;;13.69;100.00;101105.53;5078095;28;46464;-74
2022/12/24 05:30:32;;;;;;;;;8.00;2.00;;;;;13.75;100.00;101109.13;5077357;28;51795;-72
2022/12/24 05:32:57;;;;;;;;;6.33;3.67;;;;;13.78;100.00;101108.22;5078356;28;61431;-72
2022/12/24 05:35:22;;;;;;;;;8.00;4.00;;;;;13.79;100.00;101109.97;5078283;27;45364;-72
2022/12/24 05:37:48;;;;;;;;;6.00;2.67;;;;;13.78;100.00;101094.94;5194497;22;55723;-72
2022/12/24 05:40:13;;;;;;;;;4.67;2.33;;;;;13.80;100.00;101094.09;5055760;28;54413;-74
2022/12/24 05:42:39;;;;;;;;;6.00;3.00;;;;;13.82;100.00;101102.94;5058774;28;49094;-72
2022/12/24 05:45:04;;;;;;;;;9.33;3.33;;;;;13.90;100.00;101100.28;5058852;28;58467;-72
2022/12/24 05:47:30;;;;;;;;;9.67;2.00;;;;;13.85;100.00;101087.03;5057577;28;45476;-74
2022/12/24 05:49:55;;;;;;;;;10.00;2.33;;;;;13.85;100.00;101089.69;5058785;28;50819;-75
2022/12/24 05:52:20;;;;;;;;;7.67;4.00;;;;;13.89;100.00;101106.47;5058407;28;58390;-72
2022/12/24 05:54:46;;;;;;;;;6.33;2.00;;;;;13.88;100.00;101084.34;5059309;28;58402;-72
2022/12/24 05:57:12;;;;;;;;;7.33;3.67;;;;;13.86;100.00;101085.25;5058624;27;51574;-71
2022/12/24 05:59:37;;;;;;;;;10.00;3.33;;;;;13.91;100.00;101088.78;5048584;28;45558;-72
2022/12/24 06:02:02;;;;;;;;;10.33;2.00;;;;;13.90;100.00;101094.97;5042436;28;56822;-72
2022/12/24 06:04:28;;;;;;;;;2.33;0.00;;;;;13.91;100.00;101098.53;5052188;28;61194;-72
2022/12/24 06:06:53;;;;;;;;;9.33;3.00;;;;;13.91;100.00;101095.88;5062208;28;45794;-73
2022/12/24 06:09:18;;;;;;;;;7.00;3.00;;;;;13.87;100.00;101095.84;5057155;28;45527;-72
2022/12/24 06:11:44;;;;;;;;;8.67;4.00;;;;;13.85;100.00;101083.47;5055709;28;59124;-71
2022/12/24 06:14:09;;;;;;;;;8.33;5.00;;;;;13.82;100.00;101094.09;5053266;28;46173;-72
2022/12/24 06:16:35;;;;;;;;;5.67;3.00;;;;;13.81;100.00;101087.00;5047280;28;55898;-72
2022/12/24 06:19:00;;;;;;;;;5.33;3.00;;;;;13.74;100.00;101094.09;5056918;28;45419;-72
2022/12/24 06:21:26;;;;;;;;;3.67;3.00;;;;;13.75;100.00;101109.13;5056691;28;46245;-74
2022/12/24 06:23:51;;;;;;;;;7.00;2.67;;;;;13.71;100.00;101101.13;5055775;28;45534;-72
2022/12/24 06:26:19;;;;;;;;;15.67;2.67;;;;;13.69;100.00;101102.88;5056899;28;45418;-73
2022/12/24 06:28:45;;;;;;;;;10.33;2.00;;;;;13.70;100.00;101102.91;5057686;28;45335;-74
2022/12/24 06:31:14;;;;;;;;;7.33;3.00;;;;;13.69;100.00;101102.88;5057120;28;46513;-73
2022/12/24 06:33:39;;;;;;;;;5.67;3.00;;;;;13.67;100.00;101102.88;5053706;28;45386;-72
2022/12/24 06:36:06;;;;;;;;;6.00;4.00;;;;;13.61;100.00;101092.25;5056642;28;46614;-73
2022/12/24 06:38:32;;;;;;;;;7.33;2.00;;;;;13.54;100.00;101088.72;5055993;28;45510;-72
2022/12/24 06:40:58;;;;;;;;;7.00;2.00;;;;;13.60;100.00;101096.69;5056887;28;56246;-73
2022/12/24 06:43:23;;;;;;;;;6.33;4.00;;;;;13.62;100.00;101089.59;5056670;28;45459;-72
2022/12/24 06:45:49;;;;;;;;;3.00;1.33;;;;;13.57;100.00;101083.41;5057643;28;54911;-72
2022/12/24 06:48:15;;;;;;;;;8.00;2.67;;;;;13.57;100.00;101088.69;5057034;28;45432;-72
2022/12/24 06:50:40;;;;;;;;;11.67;2.00;;;;;13.54;100.00;101077.22;5055679;28;45699;-72
2022/12/24 06:53:06;;;;;;;;;3.00;2.00;;;;;13.57;100.00;101088.69;5056799;28;45463;-74
2022/12/24 06:55:31;;;;;;;;;5.33;3.00;;;;;13.53;100.00;101088.69;5055197;28;45547;-73
2022/12/24 06:57:57;;;;;;;;;3.00;2.00;;;;;13.59;100.00;101096.69;5056868;28;45439;-71
2022/12/24 07:00:22;;;;;;;;;3.00;1.00;;;;;13.55;100.00;101094.91;5046590;28;64452;-71
2022/12/24 07:02:48;;;;;;;;;3.67;1.00;;;;;13.53;100.00;101086.94;5052966;28;45414;-72
2022/12/24 07:05:13;;;;;;;;;1.00;1.00;;;;;13.51;100.00;101082.50;5056889;28;45817;-72
2022/12/24 07:07:41;;;;;;;;;2.00;2.00;;;;;13.55;100.00;101090.47;5055417;28;45566;-73
2022/12/24 07:10:09;;;;;;;;;5.67;1.67;;;;;13.50;100.00;101092.22;5057318;28;45740;-71
2022/12/24 07:12:34;;;;;;;;;2.33;1.00;;;;;13.50;100.00;101092.22;5053089;28;45292;-72
2022/12/24 07:15:00;;;;;;;;;5.00;1.00;;;;;13.54;100.00;101106.41;5055773;28;57566;-71
2022/12/24 07:17:25;;;;;;;;;5.00;2.00;;;;;13.53;100.00;101113.47;5055491;28;45502;-71
2022/12/24 07:19:51;;;;;;;;;3.00;2.00;;;;;13.50;100.00;101110.81;5056061;28;62070;-73
2022/12/24 07:22:16;;;;;;;;;3.67;1.33;;;;;13.53;100.00;101113.47;5056338;28;58465;-72
2022/12/24 07:24:41;;;;;;;;;4.67;1.67;;;;;13.59;100.00;101124.09;5054923;28;46694;-71
2022/12/24 07:27:07;;;;;;;;;4.33;2.33;;;;;13.60;100.00;101125.88;5055280;28;53707;-70
2022/12/24 07:29:33;;;;;;;;;6.33;3.00;;;;;13.62;100.00;101109.94;5054641;28;47267;-72
2022/12/24 07:31:58;;;;;;;;;4.00;2.00;;;;;13.62;100.00;101105.53;5055409;28;45455;-71
2022/12/24 07:34:23;;;;;;;;;3.33;1.00;;;;;13.58;100.00;101102.84;5044312;28;56100;-71
2022/12/24 07:36:49;;;;;;;;;3.67;1.00;;;;;13.59;100.00;101121.44;5049801;28;45404;-70
2022/12/24 07:39:14;;;;;;;;;1.33;1.33;;;;;13.52;100.00;101118.75;5055895;28;57542;-69
2022/12/24 07:41:39;;;;;;;;;1.00;1.00;;;;;13.46;100.00;101129.34;5053474;28;48176;-72
2022/12/24 07:44:05;;;;;;;;;4.00;1.67;;;;;13.24;100.00;101121.28;5054255;28;45409;-70
2022/12/24 07:46:30;;;;;;;;;1.00;1.00;;;;;13.28;100.00;101146.06;5054688;28;48029;-72
2022/12/24 07:48:55;;;;;;;;;2.00;1.00;;;;;13.19;100.00;101144.22;5055704;28;60795;-71
2022/12/24 07:51:21;;;;;;;;;2.00;0.00;;;;;13.05;100.00;101124.72;5049802;28;49106;-71
2022/12/24 07:53:46;;;;;;;;;5.00;1.00;;;;;13.08;100.00;101136.22;5056050;28;45443;-72
2022/12/24 07:56:15;;;;;;;;;2.00;1.00;;;;;13.08;100.00;101146.81;5058392;28;45398;-71
2022/12/24 07:58:40;;;;;;;;;2.67;1.00;;;;;13.03;100.00;101137.06;5055034;28;46159;-72
2022/12/24 08:01:06;;;;;;;;;2.00;1.00;;;;;13.06;100.00;101150.34;5054542;28;45439;-70
2022/12/24 08:03:31;;;;;;;;;5.00;1.33;;;;;13.03;100.00;101148.53;5056605;28;46119;-71
2022/12/24 08:05:57;;;;;;;;;6.33;2.00;;;;;13.00;100.00;101151.19;5054982;28;51087;-71
2022/12/24 08:08:23;;;;;;;;;3.00;1.00;;;;;13.03;100.00;101148.53;5050389;28;46558;-71
2022/12/24 08:10:49;;;;;;;;;1.00;0.00;;;;;13.03;100.00;101150.31;5051849;28;45557;-70
2022/12/24 08:13:14;;;;;;;;;3.33;1.00;;;;;12.94;100.00;101145.84;5051594;28;45469;-71
2022/12/24 08:15:40;;;;;;;;;3.00;0.00;;;;;13.03;100.00;101161.81;5050718;28;45469;-71
2022/12/24 08:18:05;;;;;;;;;0.67;0.67;;;;;13.01;100.00;101149.44;5055642;28;51062;-70
2022/12/24 08:20:30;;;;;;;;;2.33;0.33;;;;;13.05;100.00;101173.31;5055189;28;55886;-70
2022/12/24 08:22:56;;;;;;;;;6.00;1.00;;;;;13.02;100.00;101165.34;5056132;28;50371;-70
2022/12/24 08:25:21;;;;;;;;;2.67;1.00;;;;;13.06;100.00;101176.84;5051969;28;52660;-71
2022/12/24 08:27:46;;;;;;;;;2.33;2.33;;;;;13.07;100.00;101176.84;5058858;28;47276;-70
2022/12/24 08:30:12;;;;;;;;;4.00;1.00;;;;;13.10;100.00;101184.84;5053517;28;55840;-70
2022/12/24 08:32:37;;;;;;;;;2.33;0.00;;;;;13.06;100.00;101180.38;5054749;28;45546;-71
2022/12/24 08:35:03;;;;;;;;;5.00;1.00;;;;;13.10;100.00;101191.88;5054113;28;45606;-72
2022/12/24 08:37:29;;;;;;;;;3.00;2.00;;;;;13.14;100.00;101188.38;5055300;28;47314;-73
2022/12/24 08:39:54;;;;;;;;;8.00;2.00;;;;;13.16;100.00;101189.28;5053428;28;58613;-72
2022/12/24 08:42:19;;;;;;;;;2.67;1.33;;;;;13.26;100.00;101201.78;5057699;28;52774;-73
2022/12/24 08:44:45;;;;;;;;;4.00;1.00;;;;;13.31;100.00;101207.97;5062759;28;45549;-72
2022/12/24 08:47:10;;;;;;;;;5.00;1.33;;;;;13.34;100.00;101196.50;5055649;28;59520;-73
2022/12/24 08:49:35;;;;;;;;;1.67;1.67;;;;;13.38;100.00;101206.25;5058503;28;60252;-72
2022/12/24 08:52:01;;;;;;;;;3.00;0.00;;;;;13.42;100.00;101197.41;5047917;28;57338;-72
2022/12/24 08:54:26;;;;;;;;;1.67;1.00;;;;;13.45;100.00;101205.38;5049353;28;54080;-72
2022/12/24 08:56:51;;;;;;;;;2.00;0.33;;;;;13.51;100.00;101209.84;5054167;28;47337;-71
2022/12/24 08:59:17;;;;;;;;;4.33;1.00;;;;;13.55;100.00;101225.78;5047389;27;60724;-72
2022/12/24 09:01:42;;;;;;;;;3.33;1.00;;;;;13.58;100.00;101222.25;5048984;28;57723;-72
2022/12/24 09:04:08;;;;;;;;;2.33;2.00;;;;;13.63;100.00;101226.72;5048999;28;50464;-71
2022/12/24 09:06:34;;;;;;;;;2.00;2.00;;;;;13.68;100.00;101232.03;5049338;28;46352;-72
2022/12/24 09:09:00;;;;;;;;;3.00;1.00;;;;;13.68;100.00;101220.53;5047493;28;47022;-71
2022/12/24 09:11:26;;;;;;;;;3.00;1.00;;;;;13.73;100.00;101232.06;5045345;28;45585;-72
2022/12/24 09:13:51;;;;;;;;;4.33;1.00;;;;;13.76;100.00;101234.72;5047550;28;45642;-73
2022/12/24 09:16:16;;;;;;;;;0.67;0.67;;;;;13.73;100.00;101232.94;5043823;28;58133;-72
2022/12/24 09:18:42;;;;;;;;;1.67;1.00;;;;;13.78;100.00;101240.91;5049756;28;45480;-72
2022/12/24 09:21:13;;;;;;;;;1.00;0.00;;;;;13.81;100.00;101244.50;5050362;28;46021;-71
2022/12/24 09:23:39;;;;;;;;;3.67;1.67;;;;;13.83;100.00;101249.78;5051275;28;45472;-72
2022/12/24 09:26:15;;;;;;;;;2.67;1.00;;;;;13.85;100.00;101258.66;5049764;28;46587;-72
2022/12/24 09:28:40;;;;;;;;;1.00;1.00;;;;;13.81;100.00;101240.94;5050431;28;45642;-71
2022/12/24 09:31:06;;;;;;;;;2.00;1.00;;;;;13.81;100.00;101247.13;5050528;28;57077;-73
2022/12/24 09:33:34;;;;;;;;;0.33;0.00;;;;;13.87;100.00;101256.91;5051148;28;45583;-72
2022/12/24 09:36:00;;;;;;;;;2.33;1.00;;;;;13.85;100.00;101248.06;5049786;28;46716;-75
2022/12/24 09:38:25;;;;;;;;;2.00;1.00;;;;;13.92;100.00;101265.78;5051083;28;45497;-73
2022/12/24 09:40:52;;;;;;;;;2.00;1.00;;;;;13.93;100.00;101262.22;5048953;28;45640;-75
2022/12/24 09:43:20;;;;;;;;;5.33;1.00;;;;;13.95;100.00;101265.75;5049973;28;45554;-72
2022/12/24 09:46:12;;;;;;;;;2.67;1.00;;;;;13.98;100.00;101262.25;5048398;28;45488;-73
2022/12/24 09:48:41;;;;;;;;;7.00;1.00;;;;;13.99;100.00;101262.25;5039537;28;46279;-72
2022/12/24 09:51:21;;;;;;;;;0.00;0.00;;;;;14.02;100.00;101256.06;5050532;28;45542;-74
2022/12/24 09:53:54;;;;;;;;;2.00;0.00;;;;;14.04;100.00;101263.16;5048308;28;45571;-74
2022/12/24 09:56:23;;;;;;;;;5.33;1.00;;;;;14.07;100.00;101267.59;5065195;27;46961;-73
2022/12/24 09:58:55;;;;;;;;;4.00;1.00;;;;;14.07;100.00;101254.34;5047975;28;45537;-74
2022/12/24 10:01:20;;;;;;;;;3.00;0.33;;;;;14.11;100.00;101256.09;5045078;28;46154;-73
2022/12/24 10:03:46;;;;;;;;;5.00;3.00;;;;;14.09;100.00;101256.09;5049313;28;54100;-74
2022/12/24 10:06:31;;;;;;;;;4.00;1.00;;;;;14.13;100.00;101260.53;5056556;27;46652;-74
2022/12/24 10:09:14;;;;;;;;;15.00;6.00;;;;;14.12;100.00;101248.16;5047435;28;45478;-73
2022/12/24 10:12:01;;;;;;;;;3.00;2.33;;;;;14.20;100.00;101248.16;5050845;28;45454;-73
2022/12/24 10:14:32;;;;;;;;;1.00;0.33;;;;;14.24;100.00;101262.34;5051456;28;45494;-73
2022/12/24 10:17:19;;;;;;;;;6.33;3.00;;;;;14.28;100.00;101261.47;5052495;28;47202;-73
2022/12/24 10:19:53;;;;;;;;;0.00;0.00;;;;;14.30;100.00;101260.59;5052495;28;45376;-73
2022/12/24 10:22:59;;;;;;;;;7.00;1.00;;;;;14.30;100.00;101267.66;5051699;28;45481;-73
2022/12/24 10:25:30;;;;;;;;;1.00;1.00;;;;;14.25;100.00;101258.78;5053119;28;46169;-73
2022/12/24 10:27:58;;;;;;;;;1.00;1.00;;;;;14.23;100.00;101263.22;5052869;28;46437;-73
2022/12/24 10:30:24;;;;;;;;;3.00;0.00;;;;;14.22;100.00;101257.03;5050803;28;45410;-72
2022/12/24 10:32:51;;;;;;;;;2.00;1.00;;;;;14.28;100.00;101256.16;5053705;28;45944;-73
2022/12/24 10:35:25;;;;;;;;;5.67;2.00;;;;;14.31;100.00;101266.78;5069119;28;45782;-73
2022/12/24 10:37:51;;;;;;;;;6.00;2.00;;;;;14.32;100.00;101265.88;5049164;28;45547;-72
2022/12/24 10:40:42;;;;;;;;;5.00;1.00;;;;;14.38;100.00;101265.91;5052006;28;45509;-73
2022/12/24 10:43:23;;;;;;;;;0.00;0.00;;;;;14.39;100.00;101254.41;5047656;28;45407;-73
2022/12/24 10:45:51;;;;;;;;;2.67;1.00;;;;;14.38;100.00;101249.97;5052287;28;45761;-73
2022/12/24 10:48:27;;;;;;;;;0.33;0.33;;;;;14.42;100.00;101255.28;5067176;27;46658;-73
2022/12/24 10:51:03;;;;;;;;;1.00;1.00;;;;;14.44;100.00;101260.63;5047780;28;46074;-71
2022/12/24 10:53:41;;;;;;;;;0.00;0.00;;;;;14.46;100.00;101258.84;5045272;28;45476;-71
2022/12/24 10:56:10;;;;;;;;;1.67;1.67;;;;;14.43;100.00;101253.50;5067859;27;45528;-73
2022/12/24 10:58:35;;;;;;;;;2.00;1.00;;;;;14.49;100.00;101250.00;5047854;28;46718;-70
2022/12/24 11:01:01;;;;;;;;;3.00;1.00;;;;;14.53;100.00;101255.34;5049464;28;51480;-70
2022/12/24 11:03:35;;;;;;;;;1.00;1.00;;;;;14.55;100.00;101253.59;5051289;28;45445;-72
2022/12/24 11:06:04;;;;;;;;;0.00;0.00;;;;;14.58;100.00;101253.56;5047068;28;45933;-71
2022/12/24 11:08:30;;;;;;;;;1.67;1.00;;;;;14.54;100.00;101232.31;5049723;28;47472;-71
2022/12/24 11:11:08;;;;;;;;;0.00;0.00;;;;;14.57;100.00;101246.50;5045099;28;46233;-71
2022/12/24 11:13:48;;;;;;;;;1.00;1.00;;;;;14.59;100.00;101242.06;5047938;28;45543;-72
2022/12/24 11:16:20;;;;;;;;;4.00;1.00;;;;;14.63;100.00;101257.13;5048332;28;46815;-72
2022/12/24 11:18:51;;;;;;;;;2.00;1.67;;;;;14.66;100.00;101243.84;5052156;28;46603;-72
2022/12/24 11:21:41;;;;;;;;;0.00;0.00;;;;;14.70;100.00;101234.13;5052800;28;45504;-71
2022/12/24 11:24:12;;;;;;;;;1.00;1.00;;;;;14.72;100.00;101229.69;5055197;28;45398;-71
2022/12/24 11:26:39;;;;;;;;;1.67;1.00;;;;;14.74;100.00;101227.00;5060466;28;45446;-71
2022/12/24 11:29:07;;;;;;;;;1.00;1.00;;;;;14.74;100.00;101235.88;5056414;28;46746;-71
2022/12/24 11:31:35;;;;;;;;;3.00;0.00;;;;;14.68;100.00;101219.94;5059682;28;45511;-72